sensor_id;sensor_type;location;lat;lon;timestamp;pressure;altitude;pressure_sealevel;temperature;humidity
57114;BME280;42994;51.606;9.988;2024-03-23T00:54:14;98564.69;;;7.06;100.00
57114;BME280;42994;51.606;9.988;2024-03-23T00:56:40;98553.63;;;6.95;100.00
57114;BME280;42994;51.606;9.988;2024-03-23T00:59:06;98547.03;;;7.05;100.00
57114;BME280;42994;51.606;9.988;2024-03-23T01:01:32;98546.31;;;7.11;100.00
57114;BME280;42994;51.606;9.988;2024-03-23T01:03:59;98533.34;;;7.08;100.00
57114;BME280;42994;51.606;9.988;2024-03-23T01:06:25;98530.22;;;7.05;100.00
57114;BME280;42994;51.606;9.988;2024-03-23T01:08:52;98528.09;;;7.00;100.00
57114;BME280;42994;51.606;9.988;2024-03-23T01:11:19;98533.50;;;6.92;100.00
57114;BME280;42994;51.606;9.988;2024-03-23T01:13:46;98533.44;;;6.77;100.00
57114;BME280;42994;51.606;9.988;2024-03-23T01:16:12;98542.03;;;6.41;100.00
57114;BME280;42994;51.606;9.988;2024-03-23T01:18:38;98559.84;;;6.41;100.00
57114;BME280;42994;51.606;9.988;2024-03-23T01:21:04;98552.22;;;6.38;100.00
57114;BME280;42994;51.606;9.988;2024-03-23T01:23:31;98547.91;;;6.60;100.00
57114;BME280;42994;51.606;9.988;2024-03-23T01:25:57;98543.66;;;6.73;100.00
57114;BME280;42994;51.606;9.988;2024-03-23T01:28:25;98537.78;;;6.78;100.00
57114;BME280;42994;51.606;9.988;2024-03-23T01:30:51;98534.81;;;6.73;100.00
57114;BME280;42994;51.606;9.988;2024-03-23T01:33:17;98530.72;;;6.85;100.00
57114;BME280;42994;51.606;9.988;2024-03-23T01:35:43;98517.06;;;6.88;100.00
57114;BME280;42994;51.606;9.988;2024-03-23T01:38:10;98509.69;;;6.90;100.00
57114;BME280;42994;51.606;9.988;2024-03-23T01:40:36;98509.53;;;6.92;100.00
57114;BME280;42994;51.606;9.988;2024-03-23T01:43:04;98504.56;;;6.89;100.00
57114;BME280;42994;51.606;9.988;2024-03-23T01:45:31;98487.38;;;6.91;100.00
57114;BME280;42994;51.606;9.988;2024-03-23T01:47:59;98482.03;;;6.91;100.00
57114;BME280;42994;51.606;9.988;2024-03-23T01:50:25;98476.19;;;6.96;100.00
57114;BME280;42994;51.606;9.988;2024-03-23T01:52:53;98480.28;;;6.84;100.00
57114;BME280;42994;51.606;9.988;2024-03-23T01:55:19;98482.44;;;6.65;100.00
57114;BME280;42994;51.606;9.988;2024-03-23T01:57:46;98481.72;;;6.71;100.00
57114;BME280;42994;51.606;9.988;2024-03-23T02:00:13;98480.59;;;6.66;100.00
57114;BME280;42994;51.606;9.988;2024-03-23T02:02:45;98476.31;;;6.65;100.00
57114;BME280;42994;51.606;9.988;2024-03-23T02:05:11;98487.19;;;6.55;100.00
57114;BME280;42994;51.606;9.988;2024-03-23T02:07:39;98484.50;;;6.55;100.00
57114;BME280;42994;51.606;9.988;2024-03-23T02:10:06;98499.88;;;6.68;100.00
57114;BME280;42994;51.606;9.988;2024-03-23T02:12:32;98494.38;;;6.69;100.00
57114;BME280;42994;51.606;9.988;2024-03-23T02:14:58;98482.28;;;6.67;100.00
57114;BME280;42994;51.606;9.988;2024-03-23T02:17:25;98474.63;;;6.64;100.00
57114;BME280;42994;51.606;9.988;2024-03-23T02:19:52;98478.97;;;6.65;100.00
57114;BME280;42994;51.606;9.988;2024-03-23T02:22:19;98489.91;;;6.70;100.00
57114;BME280;42994;51.606;9.988;2024-03-23T02:24:46;98487.59;;;6.67;100.00
57114;BME280;42994;51.606;9.988;2024-03-23T02:27:14;98493.63;;;6.61;100.00
57114;BME280;42994;51.606;9.988;2024-03-23T02:29:40;98494.28;;;6.16;100.00
57114;BME280;42994;51.606;9.988;2024-03-23T02:32:06;98508.31;;;6.33;100.00
57114;BME280;42994;51.606;9.988;2024-03-23T02:34:34;98510.22;;;6.25;100.00
57114;BME280;42994;51.606;9.988;2024-03-23T02:37:01;98516.94;;;6.12;100.00
57114;BME280;42994;51.606;9.988;2024-03-23T02:39:27;98512.16;;;6.08;100.00
57114;BME280;42994;51.606;9.988;2024-03-23T02:41:55;98499.88;;;5.90;100.00
57114;BME280;42994;51.606;9.988;2024-03-23T02:44:21;98520.81;;;6.02;100.00
57114;BME280;42994;51.606;9.988;2024-03-23T02:46:48;98514.97;;;6.06;100.00
57114;BME280;42994;51.606;9.988;2024-03-23T02:49:14;98518.13;;;6.10;100.00
57114;BME280;42994;51.606;9.988;2024-03-23T02:51:40;98515.84;;;5.90;100.00
57114;BME280;42994;51.606;9.988;2024-03-23T02:54:06;98520.69;;;5.87;100.00
57114;BME280;42994;51.606;9.988;2024-03-23T02:56:33;98511.03;;;5.86;100.00
57114;BME280;42994;51.606;9.988;2024-03-23T02:59:01;98515.53;;;5.85;100.00
57114;BME280;42994;51.606;9.988;2024-03-23T03:01:27;98519.38;;;5.83;100.00
57114;BME280;42994;51.606;9.988;2024-03-23T03:03:53;98518.91;;;5.71;100.00
57114;BME280;42994;51.606;9.988;2024-03-23T03:06:23;98519.56;;;5.81;100.00
57114;BME280;42994;51.606;9.988;2024-03-23T03:08:49;98521.56;;;5.71;100.00
57114;BME280;42994;51.606;9.988;2024-03-23T03:11:16;98506.44;;;5.80;100.00
57114;BME280;42994;51.606;9.988;2024-03-23T03:13:42;98520.81;;;5.54;100.00
57114;BME280;42994;51.606;9.988;2024-03-23T03:16:10;98522.34;;;5.48;100.00
57114;BME280;42994;51.606;9.988;2024-03-23T03:18:36;98535.72;;;5.71;100.00
57114;BME280;42994;51.606;9.988;2024-03-23T03:21:03;98526.47;;;5.59;100.00
57114;BME280;42994;51.606;9.988;2024-03-23T03:23:30;98528.63;;;5.55;100.00
57114;BME280;42994;51.606;9.988;2024-03-23T03:25:57;98530.16;;;5.42;100.00
57114;BME280;42994;51.606;9.988;2024-03-23T03:28:23;98528.34;;;5.34;100.00
57114;BME280;42994;51.606;9.988;2024-03-23T03:30:51;98528.69;;;5.39;100.00
57114;BME280;42994;51.606;9.988;2024-03-23T03:33:18;98537.84;;;5.28;100.00
57114;BME280;42994;51.606;9.988;2024-03-23T03:35:45;98539.31;;;5.31;100.00
57114;BME280;42994;51.606;9.988;2024-03-23T03:38:11;98545.69;;;5.13;100.00
57114;BME280;42994;51.606;9.988;2024-03-23T03:40:38;98551.63;;;5.07;100.00
57114;BME280;42994;51.606;9.988;2024-03-23T03:43:04;98552.50;;;4.91;100.00
57114;BME280;42994;51.606;9.988;2024-03-23T03:45:30;98560.31;;;4.93;100.00
57114;BME280;42994;51.606;9.988;2024-03-23T03:47:56;98554.47;;;4.81;100.00
57114;BME280;42994;51.606;9.988;2024-03-23T03:50:25;98556.63;;;4.94;100.00
57114;BME280;42994;51.606;9.988;2024-03-23T03:52:51;98548.34;;;4.97;100.00
57114;BME280;42994;51.606;9.988;2024-03-23T03:55:18;98545.34;;;5.00;100.00
57114;BME280;42994;51.606;9.988;2024-03-23T03:57:44;98549.00;;;4.82;100.00
57114;BME280;42994;51.606;9.988;2024-03-23T04:00:11;98543.69;;;4.74;100.00
57114;BME280;42994;51.606;9.988;2024-03-23T04:02:37;98538.72;;;4.63;100.00
57114;BME280;42994;51.606;9.988;2024-03-23T04:05:05;98543.22;;;4.79;100.00
57114;BME280;42994;51.606;9.988;2024-03-23T04:07:32;98535.72;;;4.58;100.00
57114;BME280;42994;51.606;9.988;2024-03-23T04:09:59;98539.72;;;4.78;100.00
57114;BME280;42994;51.606;9.988;2024-03-23T04:12:25;98538.72;;;4.79;100.00
57114;BME280;42994;51.606;9.988;2024-03-23T04:14:52;98538.72;;;4.55;100.00
57114;BME280;42994;51.606;9.988;2024-03-23T04:17:17;98532.53;;;4.30;100.00
57114;BME280;42994;51.606;9.988;2024-03-23T04:19:44;98530.56;;;4.32;100.00
57114;BME280;42994;51.606;9.988;2024-03-23T04:22:10;98528.22;;;4.20;100.00
57114;BME280;42994;51.606;9.988;2024-03-23T04:24:38;98540.84;;;4.43;100.00
57114;BME280;42994;51.606;9.988;2024-03-23T04:27:05;98540.31;;;4.23;100.00
57114;BME280;42994;51.606;9.988;2024-03-23T04:29:31;98538.31;;;4.25;100.00
57114;BME280;42994;51.606;9.988;2024-03-23T04:31:57;98536.66;;;4.08;100.00
57114;BME280;42994;51.606;9.988;2024-03-23T04:34:30;98534.81;;;4.08;100.00
57114;BME280;42994;51.606;9.988;2024-03-23T04:36:55;98535.00;;;4.15;100.00
57114;BME280;42994;51.606;9.988;2024-03-23T04:39:22;98532.50;;;4.13;100.00
57114;BME280;42994;51.606;9.988;2024-03-23T04:41:50;98526.84;;;4.00;100.00
57114;BME280;42994;51.606;9.988;2024-03-23T04:44:17;98532.88;;;4.18;100.00
57114;BME280;42994;51.606;9.988;2024-03-23T04:46:44;98529.38;;;4.34;100.00
57114;BME280;42994;51.606;9.988;2024-03-23T04:49:12;98533.41;;;4.38;100.00
57114;BME280;42994;51.606;9.988;2024-03-23T04:51:40;98522.72;;;4.06;100.00
57114;BME280;42994;51.606;9.988;2024-03-23T04:54:11;98517.44;;;4.22;100.00
57114;BME280;42994;51.606;9.988;2024-03-23T04:56:38;98523.94;;;4.28;100.00
57114;BME280;42994;51.606;9.988;2024-03-23T04:59:05;98506.97;;;4.04;100.00
57114;BME280;42994;51.606;9.988;2024-03-23T05:01:32;98504.34;;;4.29;100.00
57114;BME280;42994;51.606;9.988;2024-03-23T05:04:02;98483.88;;;3.80;100.00
57114;BME280;42994;51.606;9.988;2024-03-23T05:06:29;98486.28;;;3.65;100.00
57114;BME280;42994;51.606;9.988;2024-03-23T05:08:56;98488.97;;;3.73;100.00
57114;BME280;42994;51.606;9.988;2024-03-23T05:11:22;98492.94;;;3.69;100.00
57114;BME280;42994;51.606;9.988;2024-03-23T05:13:48;98488.28;;;3.63;100.00
57114;BME280;42994;51.606;9.988;2024-03-23T05:16:16;98490.31;;;3.77;100.00
57114;BME280;42994;51.606;9.988;2024-03-23T05:18:42;98476.66;;;3.56;100.00
57114;BME280;42994;51.606;9.988;2024-03-23T05:21:09;98471.69;;;3.53;100.00
57114;BME280;42994;51.606;9.988;2024-03-23T05:23:35;98481.13;;;3.55;100.00
57114;BME280;42994;51.606;9.988;2024-03-23T05:26:03;98484.44;;;3.57;100.00
57114;BME280;42994;51.606;9.988;2024-03-23T05:28:30;98468.38;;;3.51;100.00
57114;BME280;42994;51.606;9.988;2024-03-23T05:30:56;98483.09;;;3.53;100.00
57114;BME280;42994;51.606;9.988;2024-03-23T05:33:24;98480.31;;;3.55;100.00
57114;BME280;42994;51.606;9.988;2024-03-23T05:35:56;98481.84;;;3.65;100.00
57114;BME280;42994;51.606;9.988;2024-03-23T05:38:22;98486.13;;;3.58;100.00
57114;BME280;42994;51.606;9.988;2024-03-23T05:40:53;98499.66;;;3.47;100.00
57114;BME280;42994;51.606;9.988;2024-03-23T05:43:19;98503.59;;;3.43;100.00
57114;BME280;42994;51.606;9.988;2024-03-23T05:45:46;98497.78;;;3.39;100.00
57114;BME280;42994;51.606;9.988;2024-03-23T05:48:18;98508.06;;;3.42;100.00
57114;BME280;42994;51.606;9.988;2024-03-23T05:50:46;98509.91;;;3.50;100.00
57114;BME280;42994;51.606;9.988;2024-03-23T05:53:12;98517.84;;;3.42;100.00
57114;BME280;42994;51.606;9.988;2024-03-23T05:55:39;98515.56;;;3.47;100.00
57114;BME280;42994;51.606;9.988;2024-03-23T05:58:05;98518.31;;;3.37;100.00
57114;BME280;42994;51.606;9.988;2024-03-23T06:00:32;98515.63;;;3.29;100.00
57114;BME280;42994;51.606;9.988;2024-03-23T06:03:00;98519.91;;;3.30;100.00
57114;BME280;42994;51.606;9.988;2024-03-23T06:05:35;98524.09;;;3.33;100.00
57114;BME280;42994;51.606;9.988;2024-03-23T06:08:10;98533.00;;;3.32;100.00
57114;BME280;42994;51.606;9.988;2024-03-23T06:10:45;98524.91;;;3.33;100.00
57114;BME280;42994;51.606;9.988;2024-03-23T06:13:11;98527.00;;;3.21;100.00
57114;BME280;42994;51.606;9.988;2024-03-23T06:15:46;98543.75;;;3.30;100.00
57114;BME280;42994;51.606;9.988;2024-03-23T06:18:12;98541.78;;;3.32;100.00
57114;BME280;42994;51.606;9.988;2024-03-23T06:20:39;98544.41;;;3.24;100.00
57114;BME280;42994;51.606;9.988;2024-03-23T06:23:08;98545.59;;;3.30;100.00
57114;BME280;42994;51.606;9.988;2024-03-23T06:25:40;98561.47;;;3.30;100.00
57114;BME280;42994;51.606;9.988;2024-03-23T06:28:06;98564.91;;;3.22;100.00
57114;BME280;42994;51.606;9.988;2024-03-23T06:30:35;98579.47;;;3.18;100.00
57114;BME280;42994;51.606;9.988;2024-03-23T06:33:09;98568.34;;;3.14;100.00
57114;BME280;42994;51.606;9.988;2024-03-23T06:35:50;98580.91;;;3.12;100.00
57114;BME280;42994;51.606;9.988;2024-03-23T06:38:18;98579.16;;;3.03;100.00
57114;BME280;42994;51.606;9.988;2024-03-23T06:40:45;98578.16;;;2.96;100.00
57114;BME280;42994;51.606;9.988;2024-03-23T06:43:13;98585.47;;;3.02;100.00
57114;BME280;42994;51.606;9.988;2024-03-23T06:45:44;98591.38;;;2.96;100.00
57114;BME280;42994;51.606;9.988;2024-03-23T06:48:12;98586.09;;;2.96;100.00
57114;BME280;42994;51.606;9.988;2024-03-23T06:50:39;98578.44;;;2.93;100.00
57114;BME280;42994;51.606;9.988;2024-03-23T06:53:07;98588.03;;;2.94;100.00
57114;BME280;42994;51.606;9.988;2024-03-23T06:55:39;98598.19;;;2.80;100.00
57114;BME280;42994;51.606;9.988;2024-03-23T06:58:18;98603.56;;;2.88;100.00
57114;BME280;42994;51.606;9.988;2024-03-23T07:00:44;98613.69;;;2.93;100.00
57114;BME280;42994;51.606;9.988;2024-03-23T07:03:11;98608.09;;;2.96;100.00
57114;BME280;42994;51.606;9.988;2024-03-23T07:05:39;98620.56;;;3.04;100.00
57114;BME280;42994;51.606;9.988;2024-03-23T07:08:06;98607.09;;;2.97;100.00
57114;BME280;42994;51.606;9.988;2024-03-23T07:10:32;98603.63;;;2.97;100.00
57114;BME280;42994;51.606;9.988;2024-03-23T07:13:00;98589.81;;;2.85;100.00
57114;BME280;42994;51.606;9.988;2024-03-23T07:15:25;98589.19;;;2.91;100.00
57114;BME280;42994;51.606;9.988;2024-03-23T07:17:52;98590.53;;;2.95;100.00
57114;BME280;42994;51.606;9.988;2024-03-23T07:20:18;98603.09;;;2.93;100.00
57114;BME280;42994;51.606;9.988;2024-03-23T07:22:45;98600.28;;;2.95;100.00
57114;BME280;42994;51.606;9.988;2024-03-23T07:25:11;98604.78;;;2.94;100.00
57114;BME280;42994;51.606;9.988;2024-03-23T07:27:38;98605.50;;;2.86;100.00
57114;BME280;42994;51.606;9.988;2024-03-23T07:30:06;98603.09;;;2.93;100.00
57114;BME280;42994;51.606;9.988;2024-03-23T07:32:34;98598.41;;;2.87;100.00
57114;BME280;42994;51.606;9.988;2024-03-23T07:35:00;98587.44;;;3.00;100.00
57114;BME280;42994;51.606;9.988;2024-03-23T07:37:27;98589.41;;;2.98;100.00
57114;BME280;42994;51.606;9.988;2024-03-23T07:39:52;98589.75;;;3.03;100.00
57114;BME280;42994;51.606;9.988;2024-03-23T07:42:19;98600.34;;;3.03;100.00
57114;BME280;42994;51.606;9.988;2024-03-23T07:44:45;98609.66;;;3.07;100.00
57114;BME280;42994;51.606;9.988;2024-03-23T07:47:14;98624.19;;;3.03;100.00
57114;BME280;42994;51.606;9.988;2024-03-23T07:49:40;98617.63;;;3.07;100.00
57114;BME280;42994;51.606;9.988;2024-03-23T07:52:08;98604.66;;;3.04;100.00
57114;BME280;42994;51.606;9.988;2024-03-23T07:54:34;98613.00;;;3.09;100.00
57114;BME280;42994;51.606;9.988;2024-03-23T07:57:00;98622.28;;;3.13;100.00
57114;BME280;42994;51.606;9.988;2024-03-23T07:59:26;98621.66;;;3.19;100.00
57114;BME280;42994;51.606;9.988;2024-03-23T08:01:56;98613.94;;;3.26;100.00
57114;BME280;42994;51.606;9.988;2024-03-23T08:04:23;98617.66;;;3.15;100.00
57114;BME280;42994;51.606;9.988;2024-03-23T08:06:50;98619.00;;;3.19;100.00
57114;BME280;42994;51.606;9.988;2024-03-23T08:09:16;98624.53;;;3.26;100.00
57114;BME280;42994;51.606;9.988;2024-03-23T08:11:44;98616.88;;;3.23;100.00
57114;BME280;42994;51.606;9.988;2024-03-23T08:14:11;98605.47;;;3.22;100.00
57114;BME280;42994;51.606;9.988;2024-03-23T08:16:38;98602.81;;;3.22;100.00
57114;BME280;42994;51.606;9.988;2024-03-23T08:19:04;98606.47;;;3.21;100.00
57114;BME280;42994;51.606;9.988;2024-03-23T08:21:32;98606.28;;;3.23;100.00
57114;BME280;42994;51.606;9.988;2024-03-23T08:23:58;98606.47;;;3.21;100.00
57114;BME280;42994;51.606;9.988;2024-03-23T08:26:24;98608.75;;;3.16;100.00
57114;BME280;42994;51.606;9.988;2024-03-23T08:28:50;98597.38;;;3.24;100.00
57114;BME280;42994;51.606;9.988;2024-03-23T08:31:17;98602.53;;;3.25;100.00
57114;BME280;42994;51.606;9.988;2024-03-23T08:33:44;98584.34;;;3.31;100.00
57114;BME280;42994;51.606;9.988;2024-03-23T08:36:10;98599.25;;;3.32;100.00
57114;BME280;42994;51.606;9.988;2024-03-23T08:38:40;98594.75;;;3.32;100.00
57114;BME280;42994;51.606;9.988;2024-03-23T08:41:07;98587.16;;;3.29;100.00
57114;BME280;42994;51.606;9.988;2024-03-23T08:43:36;98578.25;;;3.38;100.00
57114;BME280;42994;51.606;9.988;2024-03-23T08:46:05;98584.25;;;3.49;100.00
57114;BME280;42994;51.606;9.988;2024-03-23T08:48:34;98586.16;;;3.56;100.00
57114;BME280;42994;51.606;9.988;2024-03-23T08:51:01;98600.59;;;3.62;100.00
57114;BME280;42994;51.606;9.988;2024-03-23T08:53:28;98608.03;;;3.58;100.00
57114;BME280;42994;51.606;9.988;2024-03-23T08:55:56;98602.88;;;3.57;100.00
57114;BME280;42994;51.606;9.988;2024-03-23T08:58:24;98611.03;;;3.63;100.00
57114;BME280;42994;51.606;9.988;2024-03-23T09:00:50;98614.97;;;3.59;100.00
57114;BME280;42994;51.606;9.988;2024-03-23T09:03:17;98610.25;;;3.71;100.00
57114;BME280;42994;51.606;9.988;2024-03-23T09:05:43;98610.47;;;3.78;100.00
57114;BME280;42994;51.606;9.988;2024-03-23T09:08:10;98605.47;;;3.83;100.00
57114;BME280;42994;51.606;9.988;2024-03-23T09:10:38;98618.16;;;3.97;100.00
57114;BME280;42994;51.606;9.988;2024-03-23T09:13:07;98608.25;;;4.08;100.00
57114;BME280;42994;51.606;9.988;2024-03-23T09:15:34;98616.44;;;4.22;100.00
57114;BME280;42994;51.606;9.988;2024-03-23T09:18:01;98602.69;;;4.27;100.00
57114;BME280;42994;51.606;9.988;2024-03-23T09:20:27;98599.53;;;4.32;100.00
57114;BME280;42994;51.606;9.988;2024-03-23T09:22:54;98588.94;;;4.32;100.00
57114;BME280;42994;51.606;9.988;2024-03-23T09:25:20;98596.06;;;4.31;100.00
57114;BME280;42994;51.606;9.988;2024-03-23T09:27:46;98612.34;;;4.36;100.00
57114;BME280;42994;51.606;9.988;2024-03-23T09:30:14;98602.53;;;4.37;100.00
57114;BME280;42994;51.606;9.988;2024-03-23T09:32:43;98603.31;;;4.21;100.00
57114;BME280;42994;51.606;9.988;2024-03-23T09:35:09;98595.53;;;4.19;100.00
57114;BME280;42994;51.606;9.988;2024-03-23T09:37:36;98607.66;;;4.22;100.00
57114;BME280;42994;51.606;9.988;2024-03-23T09:40:02;98601.38;;;4.39;100.00
57114;BME280;42994;51.606;9.988;2024-03-23T09:42:30;98589.16;;;4.63;100.00
57114;BME280;42994;51.606;9.988;2024-03-23T09:44:57;98580.56;;;4.86;100.00
57114;BME280;42994;51.606;9.988;2024-03-23T09:47:26;98565.75;;;4.99;100.00
57114;BME280;42994;51.606;9.988;2024-03-23T09:49:52;98561.13;;;4.93;100.00
57114;BME280;42994;51.606;9.988;2024-03-23T09:52:19;98546.19;;;4.84;100.00
57114;BME280;42994;51.606;9.988;2024-03-23T09:54:45;98547.00;;;5.09;100.00
57114;BME280;42994;51.606;9.988;2024-03-23T09:57:11;98537.03;;;5.11;100.00
57114;BME280;42994;51.606;9.988;2024-03-23T09:59:37;98534.34;;;5.19;100.00
57114;BME280;42994;51.606;9.988;2024-03-23T10:02:05;98537.31;;;5.33;100.00
57114;BME280;42994;51.606;9.988;2024-03-23T10:04:39;98532.97;;;5.48;100.00
57114;BME280;42994;51.606;9.988;2024-03-23T10:07:13;98524.28;;;5.63;100.00
57114;BME280;42994;51.606;9.988;2024-03-23T10:09:39;98510.25;;;5.29;100.00
57114;BME280;42994;51.606;9.988;2024-03-23T10:12:10;98498.78;;;5.29;100.00
57114;BME280;42994;51.606;9.988;2024-03-23T10:14:36;98489.47;;;5.33;100.00
57114;BME280;42994;51.606;9.988;2024-03-23T10:17:14;98480.13;;;5.53;100.00
57114;BME280;42994;51.606;9.988;2024-03-23T10:19:42;98483.28;;;5.57;100.00
57114;BME280;42994;51.606;9.988;2024-03-23T10:22:13;98474.09;;;5.59;100.00
57114;BME280;42994;51.606;9.988;2024-03-23T10:24:39;98449.22;;;5.52;100.00
57114;BME280;42994;51.606;9.988;2024-03-23T10:27:06;98435.59;;;5.55;100.00
57114;BME280;42994;51.606;9.988;2024-03-23T10:29:32;98429.88;;;5.67;100.00
57114;BME280;42994;51.606;9.988;2024-03-23T10:32:08;98427.03;;;5.68;100.00
57114;BME280;42994;51.606;9.988;2024-03-23T10:34:35;98416.97;;;5.55;100.00
57114;BME280;42994;51.606;9.988;2024-03-23T10:37:04;98399.97;;;5.65;100.00
57114;BME280;42994;51.606;9.988;2024-03-23T10:39:32;98390.44;;;6.02;100.00
57114;BME280;42994;51.606;9.988;2024-03-23T10:42:01;98382.28;;;6.26;100.00
57114;BME280;42994;51.606;9.988;2024-03-23T10:44:28;98379.53;;;6.34;100.00
57114;BME280;42994;51.606;9.988;2024-03-23T10:46:57;98353.03;;;6.41;100.00
57114;BME280;42994;51.606;9.988;2024-03-23T10:49:26;98324.41;;;6.58;100.00
57114;BME280;42994;51.606;9.988;2024-03-23T10:51:55;98319.91;;;6.73;100.00
57114;BME280;42994;51.606;9.988;2024-03-23T10:54:24;98304.81;;;6.81;100.00
57114;BME280;42994;51.606;9.988;2024-03-23T10:56:58;98279.41;;;6.48;100.00
57114;BME280;42994;51.606;9.988;2024-03-23T10:59:25;98283.34;;;6.38;100.00
57114;BME280;42994;51.606;9.988;2024-03-23T11:01:56;98280.75;;;6.14;100.00
57114;BME280;42994;51.606;9.988;2024-03-23T11:04:35;98281.66;;;6.07;100.00
57114;BME280;42994;51.606;9.988;2024-03-23T11:07:30;98271.44;;;6.33;100.00
57114;BME280;42994;51.606;9.988;2024-03-23T11:09:59;98258.56;;;6.52;100.00
57114;BME280;42994;51.606;9.988;2024-03-23T11:12:30;98254.47;;;6.86;100.00
57114;BME280;42994;51.606;9.988;2024-03-23T11:15:01;98252.19;;;6.68;100.00
57114;BME280;42994;51.606;9.988;2024-03-23T11:17:28;98252.31;;;6.74;100.00
57114;BME280;42994;51.606;9.988;2024-03-23T11:19:56;98226.91;;;6.93;100.00
57114;BME280;42994;51.606;9.988;2024-03-23T11:22:41;98228.25;;;6.83;100.00
57114;BME280;42994;51.606;9.988;2024-03-23T11:25:19;98218.75;;;6.80;100.00
57114;BME280;42994;51.606;9.988;2024-03-23T11:27:48;98236.63;;;6.50;100.00
57114;BME280;42994;51.606;9.988;2024-03-23T11:30:16;98257.09;;;6.20;100.00
57114;BME280;42994;51.606;9.988;2024-03-23T11:32:43;98268.78;;;5.72;100.00
57114;BME280;42994;51.606;9.988;2024-03-23T11:35:10;98286.28;;;5.20;100.00
57114;BME280;42994;51.606;9.988;2024-03-23T11:37:37;98303.91;;;4.74;100.00
57114;BME280;42994;51.606;9.988;2024-03-23T11:40:21;98323.84;;;4.61;100.00
57114;BME280;42994;51.606;9.988;2024-03-23T11:42:55;98335.44;;;4.69;100.00
57114;BME280;42994;51.606;9.988;2024-03-23T11:45:21;98330.31;;;4.75;100.00
57114;BME280;42994;51.606;9.988;2024-03-23T11:47:48;98338.84;;;4.94;100.00
57114;BME280;42994;51.606;9.988;2024-03-23T11:50:19;98355.69;;;5.17;100.00
57114;BME280;42994;51.606;9.988;2024-03-23T11:52:46;98343.22;;;5.18;100.00
57114;BME280;42994;51.606;9.988;2024-03-23T11:55:12;98341.38;;;5.27;100.00
57114;BME280;42994;51.606;9.988;2024-03-23T11:57:40;98324.34;;;5.44;100.00
57114;BME280;42994;51.606;9.988;2024-03-23T12:00:20;98316.63;;;5.49;100.00
57114;BME280;42994;51.606;9.988;2024-03-23T12:02:47;98305.66;;;5.52;100.00
57114;BME280;42994;51.606;9.988;2024-03-23T12:05:14;98301.53;;;5.73;100.00
57114;BME280;42994;51.606;9.988;2024-03-23T12:07:41;98296.06;;;6.12;100.00
57114;BME280;42994;51.606;9.988;2024-03-23T12:10:07;98296.19;;;6.19;100.00
57114;BME280;42994;51.606;9.988;2024-03-23T12:12:34;98274.81;;;6.42;100.00
57114;BME280;42994;51.606;9.988;2024-03-23T12:15:05;98277.09;;;6.60;100.00
57114;BME280;42994;51.606;9.988;2024-03-23T12:17:33;98250.38;;;6.39;100.00
57114;BME280;42994;51.606;9.988;2024-03-23T12:20:00;98249.56;;;6.53;100.00
57114;BME280;42994;51.606;9.988;2024-03-23T12:22:27;98321.25;;;5.78;100.00
57114;BME280;42994;51.606;9.988;2024-03-23T12:24:52;98323.47;;;4.89;100.00
57114;BME280;42994;51.606;9.988;2024-03-23T12:27:19;98360.53;;;4.66;100.00
57114;BME280;42994;51.606;9.988;2024-03-23T12:29:45;98357.91;;;4.41;100.00
57114;BME280;42994;51.606;9.988;2024-03-23T12:32:14;98374.66;;;4.34;100.00
57114;BME280;42994;51.606;9.988;2024-03-23T12:34:40;98384.41;;;4.58;100.00
57114;BME280;42994;51.606;9.988;2024-03-23T12:37:07;98398.41;;;4.11;100.00
57114;BME280;42994;51.606;9.988;2024-03-23T12:39:34;98418.94;;;4.00;100.00
57114;BME280;42994;51.606;9.988;2024-03-23T12:42:02;98414.28;;;3.86;100.00
57114;BME280;42994;51.606;9.988;2024-03-23T12:44:28;98426.88;;;3.84;100.00
57114;BME280;42994;51.606;9.988;2024-03-23T12:46:55;98442.78;;;3.92;100.00
57114;BME280;42994;51.606;9.988;2024-03-23T12:49:22;98448.06;;;3.76;100.00
57114;BME280;42994;51.606;9.988;2024-03-23T12:51:53;98444.16;;;3.45;100.00
57114;BME280;42994;51.606;9.988;2024-03-23T12:54:20;98432.28;;;3.58;100.00
57114;BME280;42994;51.606;9.988;2024-03-23T12:56:46;98436.53;;;3.42;100.00
57114;BME280;42994;51.606;9.988;2024-03-23T12:59:12;98422.97;;;3.45;100.00
57114;BME280;42994;51.606;9.988;2024-03-23T13:01:39;98422.88;;;3.63;100.00
57114;BME280;42994;51.606;9.988;2024-03-23T13:04:05;98428.06;;;4.22;100.00
57114;BME280;42994;51.606;9.988;2024-03-23T13:06:33;98429.22;;;4.45;100.00
57114;BME280;42994;51.606;9.988;2024-03-23T13:09:00;98444.97;;;4.38;100.00
57114;BME280;42994;51.606;9.988;2024-03-23T13:11:27;98437.88;;;4.22;100.00
57114;BME280;42994;51.606;9.988;2024-03-23T13:13:53;98443.31;;;4.61;100.00
57114;BME280;42994;51.606;9.988;2024-03-23T13:16:19;98438.44;;;5.06;100.00
57114;BME280;42994;51.606;9.988;2024-03-23T13:18:45;98437.13;;;4.94;100.00
57114;BME280;42994;51.606;9.988;2024-03-23T13:21:12;98423.03;;;4.93;100.00
57114;BME280;42994;51.606;9.988;2024-03-23T13:23:39;98415.81;;;5.10;100.00
57114;BME280;42994;51.606;9.988;2024-03-23T13:26:07;98405.91;;;4.96;100.00
57114;BME280;42994;51.606;9.988;2024-03-23T13:28:33;98390.78;;;5.05;100.00
57114;BME280;42994;51.606;9.988;2024-03-23T13:31:00;98380.41;;;5.26;100.00
57114;BME280;42994;51.606;9.988;2024-03-23T13:33:29;98371.69;;;5.01;100.00
57114;BME280;42994;51.606;9.988;2024-03-23T13:35:57;98366.66;;;5.46;100.00
57114;BME280;42994;51.606;9.988;2024-03-23T13:38:23;98368.88;;;5.42;100.00
57114;BME280;42994;51.606;9.988;2024-03-23T13:40:52;98361.25;;;5.39;100.00
57114;BME280;42994;51.606;9.988;2024-03-23T13:43:18;98361.31;;;5.54;100.00
57114;BME280;42994;51.606;9.988;2024-03-23T13:45:46;98338.75;;;5.73;100.00
57114;BME280;42994;51.606;9.988;2024-03-23T13:48:12;98344.31;;;5.86;100.00
57114;BME280;42994;51.606;9.988;2024-03-23T13:50:39;98327.63;;;6.01;100.00
57114;BME280;42994;51.606;9.988;2024-03-23T13:53:05;98300.03;;;5.93;100.00
57114;BME280;42994;51.606;9.988;2024-03-23T13:55:33;98281.59;;;5.92;100.00